This is the latest recevied weather packets stored in our database for station/object W0JRT-6. If no packets are shown the sender has not sent any weather packets the latest 1 day(s).
| Time | Temp. | Humidity | Pressure | Rain* | Wind** | Luminosity | Snow |
|---|---|---|---|---|---|---|---|
| 1778098797 | 16.11° C | 35% | 1014.1 hPa | 0.51 mm | - | - | - |
| 1778095800 | 15° C | 38% | 1014.5 hPa | 0.51 mm | - | - | - |
| 1778094604 | 15° C | 35% | 1014.6 hPa | 0.51 mm | - | - | - |
| 1778093400 | 15° C | 45% | 1014.6 hPa | 0.51 mm | - | - | - |
| 1778092804 | 15° C | 43% | 1014.8 hPa | 0.51 mm | - | - | - |
| 1778091009 | 14.44° C | 40% | 1015.1 hPa | 0.51 mm | - | - | - |
| 1778090405 | 14.44° C | 38% | 1015.2 hPa | 0.51 mm | - | - | - |
| 1778089201 | 13.89° C | 40% | 1015.2 hPa | 0.51 mm | - | - | - |
| 1778088008 | 13.89° C | 40% | 1015.2 hPa | 0.51 mm | - | - | - |
| 1778086206 | 13.33° C | 40% | 1015.3 hPa | 0.51 mm | - | - | - |
| 1778083804 | 13.33° C | 42% | 1015.3 hPa | 0.51 mm | - | - | - |
| 1778082000 | 13.33° C | 39% | 1015.1 hPa | 0.51 mm | - | - | - |
| 1778079004 | 12.22° C | 50% | 1015.6 hPa | 0.51 mm | - | - | - |
| 1778077812 | 11.67° C | 55% | 1016.1 hPa | 0.51 mm | - | - | - |
| 1778074809 | 10° C | 69% | 1016.3 hPa | 0.51 mm | - | - | - |
| 1778073598 | 10° C | 66% | 1016.3 hPa | 0.51 mm | - | - | - |
| 1778070011 | 7.78° C | 89% | 1015.9 hPa | 0.51 mm | - | - | - |
| 1778068201 | 6.67° C | 91% | 1015.6 hPa | 0.51 mm | - | - | - |
| 1778062208 | 8.33° C | 91% | 1015.6 hPa | 0.51 mm | - | - | - |
| 1778060398 | 7.78° C | 93% | 1015.1 hPa | 0.51 mm | - | - | - |
| 1778059211 | 7.78° C | 94% | 1014.8 hPa | 0.51 mm | - | - | - |
| 1778057408 | 7.78° C | 94% | 1014.6 hPa | 0.51 mm | - | - | - |
| 1778056811 | 7.78° C | 94% | 1014.5 hPa | 0.51 mm | - | - | - |
| 1778055607 | 7.78° C | 94% | 1014.5 hPa | 0.51 mm | - | - | - |
| 1778053803 | 7.78° C | 94% | 1013.8 hPa | 0.51 mm | - | - | - |
* Rain since midnight (hover to see other rain measurements)
** Current wind speed in m/s (hover to see current wind gust speed)